LFRG

Deauville-Saint-Gatien Airport

Deauville, France
TAF LFRG 151100Z 1512/1521 30008KT 9999 BKN030 BECMG 1517/1519 VRB03KT
Issued Valid From Valid To
Aug-15 @ 11:00 UTC
(2 hours ago)
Aug-15 @ 12:00 UTC
(42 minutes ago)
Aug-15 @ 21:00 UTC
(in 8 hours)
Aug-15 @ 12:00 to Aug-15 @ 17:00
TAF LFRG 151100Z 1512/1521 30008KT 9999 BKN030
Wind Visibility Clouds
300° at 8 knots 10,000+ meters
  • Broken at 3,000' AGL
Becoming Aug-15 @ 17:00 to Aug-15 @ 21:00
BECMG 1517/1519 VRB03KT
Wind Visibility Clouds
Variable at 3 knots 10,000+ meters
  • Broken at 3,000' AGL
TAF LFRG 151100Z 1512/1521 30008KT 9999 BKN030 BECMG 1517/1519 VRB03KT
Issued Aug-15 @ 11:00 UTC
(2 hours ago)
Valid From Aug-15 @ 12:00 UTC
(42 minutes ago)
Valid To Aug-15 @ 21:00 UTC
(in 8 hours)
Aug-15 @ 12:00 - Aug-15 @ 17:00
Wind Visibility
300° at 8 knots 10,000+ meters
Clouds
  • Broken at 3,000' AGL
Becoming Aug-15 @ 17:00 - Aug-15 @ 21:00
Wind Visibility
Variable at 3 knots 10,000+ meters
Clouds
  • Broken at 3,000' AGL